createdAt,value
2019-03-31T00:00:01.550Z,68.97
2019-03-31T00:02:31.234Z,69.27
2019-03-31T00:05:01.095Z,68.80
2019-03-31T00:07:30.882Z,71.07
2019-03-31T00:10:00.557Z,69.10
2019-03-31T00:12:30.288Z,69.63
2019-03-31T00:15:00.789Z,69.70
2019-03-31T00:17:30.525Z,69.00
2019-03-31T00:20:00.374Z,68.60
2019-03-31T00:22:30.173Z,75.97
2019-03-31T00:24:59.832Z,72.53
2019-03-31T00:27:29.689Z,71.23
2019-03-31T00:29:59.353Z,76.93
2019-03-31T00:32:32.283Z,80.50
2019-03-31T00:35:02.287Z,80.03
2019-03-31T00:37:32.174Z,81.30
2019-03-31T00:40:01.815Z,79.23
2019-03-31T00:42:31.497Z,79.50
2019-03-31T00:45:01.582Z,77.33
2019-03-31T00:47:31.257Z,79.53
2019-03-31T00:50:00.946Z,81.27
2019-03-31T00:52:30.654Z,79.57
2019-03-31T00:55:00.474Z,81.23
2019-03-31T00:57:30.316Z,83.30
2019-03-31T01:00:00.036Z,79.87
2019-03-31T01:02:32.206Z,76.33
2019-03-31T01:05:06.087Z,85.47
2019-03-31T01:07:38.090Z,79.63
2019-03-31T01:10:09.171Z,83.90
2019-03-31T01:12:39.882Z,79.67
2019-03-31T01:15:16.008Z,76.97
2019-03-31T01:17:46.164Z,79.83
2019-03-31T01:20:15.804Z,77.70
2019-03-31T01:22:45.815Z,79.90
2019-03-31T01:25:18.235Z,81.00
2019-03-31T01:27:47.871Z,77.33
2019-03-31T01:30:19.317Z,73.47
2019-03-31T01:32:49.189Z,73.73
2019-03-31T01:35:19.794Z,66.10
2019-03-31T01:37:52.108Z,66.03
2019-03-31T01:40:29.041Z,71.37
2019-03-31T01:42:59.181Z,66.27
2019-03-31T01:45:28.935Z,64.27
2019-03-31T01:47:58.723Z,67.40
2019-03-31T01:50:30.211Z,65.80
2019-03-31T01:52:59.919Z,67.97
2019-03-31T01:55:31.860Z,68.93
2019-03-31T01:58:01.564Z,63.13
2019-03-31T02:00:37.846Z,64.77
2019-03-31T02:03:07.516Z,58.30
2019-03-31T02:05:39.480Z,64.27
2019-03-31T02:08:10.715Z,62.47
2019-03-31T02:10:40.296Z,64.13
2019-03-31T02:13:13.106Z,66.47
2019-03-31T02:15:45.155Z,62.80
2019-03-31T02:18:15.456Z,62.53
2019-03-31T02:20:46.920Z,63.00
2019-03-31T02:23:16.654Z,58.10
2019-03-31T02:25:46.310Z,59.60
2019-03-31T02:28:16.002Z,55.33
2019-03-31T02:30:46.621Z,56.47
2019-03-31T02:33:16.630Z,56.93
2019-03-31T02:35:47.631Z,53.17
2019-03-31T02:38:19.400Z,56.57
2019-03-31T02:40:49.085Z,55.27
2019-03-31T02:43:19.669Z,55.37
2019-03-31T02:45:52.447Z,49.83
2019-03-31T02:48:22.096Z,49.07
2019-03-31T02:50:52.449Z,48.70
2019-03-31T02:53:22.520Z,51.43
2019-03-31T02:55:53.576Z,45.73
2019-03-31T02:58:23.314Z,50.40
2019-03-31T03:00:53.901Z,51.60
2019-03-31T03:03:23.584Z,54.47
2019-03-31T03:05:55.195Z,53.13
2019-03-31T03:08:26.839Z,52.17
2019-03-31T03:11:00.893Z,48.80
2019-03-31T03:13:34.899Z,46.37
2019-03-31T03:16:18.557Z,46.67
2019-03-31T03:18:49.386Z,46.80
2019-03-31T03:21:23.724Z,47.03
2019-03-31T03:23:51.934Z,46.90
2019-03-31T03:26:21.866Z,43.30
2019-03-31T03:28:52.243Z,46.73
2019-03-31T03:31:22.012Z,41.97
2019-03-31T03:33:53.552Z,41.23
2019-03-31T03:36:23.466Z,40.43
2019-03-31T03:38:53.118Z,40.13
2019-03-31T03:41:22.718Z,41.00
2019-03-31T03:43:56.344Z,37.23
2019-03-31T03:46:24.475Z,39.53
2019-03-31T03:48:54.218Z,40.13
2019-03-31T03:51:23.946Z,40.97
2019-03-31T03:53:55.083Z,39.60
2019-03-31T03:56:28.905Z,41.53
2019-03-31T03:58:56.578Z,39.50
2019-03-31T04:01:30.514Z,36.43
2019-03-31T04:04:00.270Z,38.63
2019-03-31T04:06:30.578Z,34.80
2019-03-31T04:09:00.257Z,27.13
2019-03-31T04:11:30.740Z,26.23
2019-03-31T04:14:00.476Z,35.13
2019-03-31T04:16:30.151Z,27.27
2019-03-31T04:18:59.796Z,28.47
2019-03-31T04:21:29.713Z,26.33
2019-03-31T04:23:59.526Z,31.90
2019-03-31T04:26:29.239Z,33.40
2019-03-31T04:29:01.286Z,32.63
2019-03-31T04:31:31.338Z,33.90
2019-03-31T04:34:01.032Z,34.70
2019-03-31T04:36:32.032Z,35.60
2019-03-31T04:39:03.699Z,33.00
2019-03-31T04:41:33.450Z,32.00
2019-03-31T04:44:03.090Z,30.80
2019-03-31T04:46:32.640Z,30.03
2019-03-31T04:49:02.304Z,32.07
2019-03-31T04:51:31.962Z,33.60
2019-03-31T04:54:01.691Z,33.67
2019-03-31T04:56:31.627Z,33.00
2019-03-31T04:59:01.301Z,31.70
2019-03-31T05:01:30.984Z,30.37
2019-03-31T05:04:04.838Z,32.97
2019-03-31T05:06:34.071Z,30.87
2019-03-31T05:09:05.276Z,27.27
2019-03-31T05:11:34.974Z,25.93
2019-03-31T05:14:04.661Z,20.57
2019-03-31T05:16:34.475Z,22.07
2019-03-31T05:19:04.170Z,21.53
2019-03-31T05:21:35.220Z,23.00
2019-03-31T05:24:07.998Z,16.30
2019-03-31T05:26:37.849Z,21.43
2019-03-31T05:29:07.474Z,21.03
2019-03-31T05:31:39.141Z,22.63
2019-03-31T05:34:18.884Z,21.57
2019-03-31T05:36:43.273Z,18.60
2019-03-31T05:39:14.467Z,15.33
2019-03-31T05:41:46.200Z,21.37
2019-03-31T05:44:17.278Z,18.90
2019-03-31T05:46:46.940Z,18.17
2019-03-31T05:49:17.106Z,17.37
2019-03-31T05:51:49.213Z,12.70
2019-03-31T05:54:19.164Z,14.73
2019-03-31T05:56:48.900Z,13.00
2019-03-31T05:59:18.595Z,13.90
2019-03-31T06:01:48.282Z,17.47
2019-03-31T06:04:32.684Z,14.03
2019-03-31T06:06:51.210Z,19.80
2019-03-31T06:09:20.998Z,17.23
2019-03-31T06:11:53.425Z,18.63
2019-03-31T06:14:22.082Z,16.47
2019-03-31T06:16:54.549Z,15.07
2019-03-31T06:19:24.195Z,15.77
2019-03-31T06:21:53.990Z,13.37
2019-03-31T06:24:23.681Z,15.50
2019-03-31T06:26:53.824Z,12.77
2019-03-31T06:29:23.918Z,9.83
2019-03-31T06:31:53.579Z,10.50
2019-03-31T06:34:24.802Z,10.53
2019-03-31T06:36:54.611Z,12.33
2019-03-31T06:39:25.251Z,12.20
2019-03-31T06:41:54.899Z,11.00
2019-03-31T06:44:26.005Z,11.70
2019-03-31T06:46:56.243Z,10.10
2019-03-31T06:49:26.953Z,10.07
2019-03-31T06:51:57.263Z,11.67
2019-03-31T06:54:27.640Z,8.53
2019-03-31T06:56:59.530Z,11.47
2019-03-31T06:59:29.551Z,10.30
2019-03-31T07:02:02.740Z,11.30
2019-03-31T07:04:31.448Z,9.50
2019-03-31T07:07:02.087Z,10.70
2019-03-31T07:09:32.247Z,9.83
2019-03-31T07:12:01.985Z,11.20
2019-03-31T07:14:31.675Z,11.83
2019-03-31T07:17:01.380Z,13.03
2019-03-31T07:19:32.061Z,12.40
2019-03-31T07:22:02.592Z,11.97
2019-03-31T07:24:32.222Z,12.70
2019-03-31T07:27:02.726Z,12.50
2019-03-31T07:29:32.486Z,11.20
2019-03-31T07:32:02.580Z,11.30
2019-03-31T07:34:32.544Z,12.87
2019-03-31T07:37:02.264Z,12.30
2019-03-31T07:39:32.976Z,11.50
2019-03-31T07:42:03.095Z,11.63
2019-03-31T07:44:33.023Z,11.37
2019-03-31T07:47:02.655Z,10.77
2019-03-31T07:49:34.687Z,11.30
2019-03-31T07:52:06.449Z,10.03
2019-03-31T07:54:36.431Z,9.13
2019-03-31T07:57:07.143Z,8.73
2019-03-31T07:59:36.982Z,8.30
2019-03-31T08:02:06.875Z,8.53
2019-03-31T08:04:37.314Z,8.70
2019-03-31T08:07:06.965Z,8.73
2019-03-31T08:09:36.689Z,8.93
2019-03-31T08:12:06.352Z,7.83
2019-03-31T08:14:36.511Z,9.07
2019-03-31T08:17:06.605Z,8.37
2019-03-31T08:19:36.305Z,8.10
2019-03-31T08:22:06.037Z,9.00
2019-03-31T08:24:46.876Z,7.30
2019-03-31T08:27:16.910Z,8.40
2019-03-31T08:29:55.377Z,9.00
2019-03-31T08:32:18.315Z,6.97
2019-03-31T08:34:50.755Z,8.27
2019-03-31T08:37:21.900Z,8.53
2019-03-31T08:39:53.218Z,8.93
2019-03-31T08:42:22.879Z,8.27
2019-03-31T08:44:52.734Z,6.93
2019-03-31T08:47:22.415Z,7.73
2019-03-31T08:49:52.551Z,7.23
2019-03-31T08:52:22.215Z,8.03
2019-03-31T08:54:51.926Z,6.90
2019-03-31T08:57:21.756Z,6.47
2019-03-31T08:59:51.469Z,6.77
2019-03-31T09:02:26.602Z,7.03
2019-03-31T09:04:56.370Z,5.57
2019-03-31T09:07:26.106Z,5.90
2019-03-31T09:09:55.789Z,7.00
2019-03-31T09:12:25.453Z,6.97
2019-03-31T09:14:55.143Z,6.77
2019-03-31T09:17:24.958Z,6.00
2019-03-31T09:19:54.865Z,6.83
2019-03-31T09:22:25.792Z,5.87
2019-03-31T09:24:56.295Z,6.50
2019-03-31T09:27:26.958Z,6.17
2019-03-31T09:29:56.767Z,6.37
2019-03-31T09:32:26.810Z,5.63
2019-03-31T09:34:56.392Z,6.27
2019-03-31T09:37:26.140Z,5.57
2019-03-31T09:39:58.017Z,4.20
2019-03-31T09:42:27.672Z,4.50
2019-03-31T09:45:00.947Z,3.70
2019-03-31T09:47:30.590Z,4.80
2019-03-31T09:50:00.345Z,4.50
2019-03-31T09:52:32.549Z,3.80
2019-03-31T09:55:07.390Z,4.03
2019-03-31T09:57:37.470Z,3.73
2019-03-31T10:00:13.884Z,3.77
2019-03-31T10:02:43.542Z,3.17
2019-03-31T10:05:13.489Z,2.70
2019-03-31T10:07:43.174Z,2.77
2019-03-31T10:10:30.412Z,2.77
2019-03-31T10:13:00.270Z,2.57
2019-03-31T10:15:29.918Z,2.67
2019-03-31T10:17:59.655Z,3.03
2019-03-31T10:20:31.431Z,2.30
2019-03-31T10:23:04.655Z,2.53
2019-03-31T10:25:37.224Z,2.37
2019-03-31T10:28:09.843Z,2.30
2019-03-31T10:30:40.083Z,2.57
2019-03-31T10:33:09.854Z,2.50
2019-03-31T10:35:42.865Z,1.90
2019-03-31T10:38:12.820Z,1.97
2019-03-31T10:40:45.641Z,2.50
2019-03-31T10:43:15.297Z,2.30
2019-03-31T10:45:45.603Z,2.30
2019-03-31T10:48:20.615Z,2.10
2019-03-31T10:50:50.748Z,2.50
2019-03-31T10:53:20.472Z,2.33
2019-03-31T10:55:50.211Z,2.33
2019-03-31T10:58:21.254Z,2.23
2019-03-31T11:00:50.950Z,2.37
2019-03-31T11:03:20.637Z,2.60
2019-03-31T11:05:50.368Z,1.80
2019-03-31T11:08:20.746Z,2.10
2019-03-31T11:10:50.814Z,2.10
2019-03-31T11:13:25.182Z,2.37
2019-03-31T11:15:57.598Z,2.30
2019-03-31T11:18:27.854Z,2.53
2019-03-31T11:20:59.410Z,2.30
2019-03-31T11:23:30.595Z,2.50
2019-03-31T11:26:00.447Z,2.13
2019-03-31T11:28:30.147Z,2.10
2019-03-31T11:30:59.894Z,2.60
2019-03-31T11:33:31.457Z,2.60
2019-03-31T11:36:01.119Z,2.23
2019-03-31T11:38:31.051Z,2.10
2019-03-31T11:41:00.723Z,2.27
2019-03-31T11:43:30.427Z,2.50
2019-03-31T11:46:00.130Z,2.30
2019-03-31T11:48:29.841Z,2.57
2019-03-31T11:51:00.521Z,2.50
2019-03-31T11:53:31.052Z,2.00
2019-03-31T11:56:00.719Z,2.10
2019-03-31T11:58:32.225Z,2.40
2019-03-31T12:01:02.597Z,2.50
2019-03-31T12:03:32.312Z,2.00
2019-03-31T12:06:01.966Z,1.90
2019-03-31T12:08:31.722Z,1.80
2019-03-31T12:11:01.752Z,2.33
2019-03-31T12:13:31.348Z,2.03
2019-03-31T12:16:02.661Z,2.10
2019-03-31T12:18:32.331Z,2.27
2019-03-31T12:21:02.008Z,2.50
2019-03-31T12:23:32.146Z,2.10
2019-03-31T12:26:02.428Z,2.53
2019-03-31T12:28:33.816Z,2.20
2019-03-31T12:31:05.349Z,2.97
2019-03-31T12:33:35.300Z,2.23
2019-03-31T12:36:07.365Z,1.90
2019-03-31T12:38:37.078Z,2.07
2019-03-31T12:41:06.766Z,2.90
2019-03-31T12:43:43.879Z,2.47
2019-03-31T12:46:13.558Z,2.27
2019-03-31T12:48:47.209Z,2.30
2019-03-31T12:51:17.292Z,2.80
2019-03-31T12:53:51.070Z,2.60
2019-03-31T12:56:20.988Z,1.83
2019-03-31T12:58:51.910Z,2.50
2019-03-31T13:01:21.578Z,2.83
2019-03-31T13:03:51.377Z,2.00
2019-03-31T13:06:23.604Z,2.30
2019-03-31T13:08:53.310Z,2.73
2019-03-31T13:11:22.973Z,2.40
2019-03-31T13:13:52.682Z,1.73
2019-03-31T13:16:22.393Z,2.77
2019-03-31T13:18:52.296Z,2.37
2019-03-31T13:21:21.959Z,2.47
2019-03-31T13:23:54.128Z,2.50
2019-03-31T13:26:24.144Z,2.07
2019-03-31T13:28:54.310Z,2.10
2019-03-31T13:31:24.023Z,2.33
2019-03-31T13:33:53.792Z,2.30
2019-03-31T13:36:23.563Z,1.90
2019-03-31T13:38:53.300Z,2.03
2019-03-31T13:41:22.955Z,2.37
2019-03-31T13:43:52.677Z,1.73
2019-03-31T13:46:45.352Z,2.37
2019-03-31T13:49:17.120Z,2.20
2019-03-31T13:51:47.068Z,2.30
2019-03-31T13:54:16.732Z,2.20
2019-03-31T13:56:48.856Z,2.20
2019-03-31T13:59:17.834Z,2.20
2019-03-31T14:01:47.751Z,2.20
2019-03-31T14:04:21.320Z,2.40
2019-03-31T14:06:51.092Z,2.23
2019-03-31T14:09:23.409Z,2.20
2019-03-31T14:11:56.575Z,2.43
2019-03-31T14:14:27.377Z,1.93
2019-03-31T14:16:57.077Z,1.87
2019-03-31T14:19:26.916Z,2.40
2019-03-31T14:21:58.836Z,2.43
2019-03-31T14:24:28.504Z,2.60
2019-03-31T14:26:58.191Z,2.37
2019-03-31T14:29:30.034Z,1.83
2019-03-31T14:32:01.379Z,2.20
2019-03-31T14:34:31.497Z,2.23
2019-03-31T14:37:05.963Z,1.93
2019-03-31T14:39:36.885Z,2.10
2019-03-31T14:42:06.559Z,2.87
2019-03-31T14:44:36.404Z,1.97
2019-03-31T14:47:07.649Z,2.57
2019-03-31T14:49:37.339Z,1.90
2019-03-31T14:52:07.405Z,2.17
2019-03-31T14:54:41.779Z,2.30
2019-03-31T14:57:11.701Z,2.30
2019-03-31T14:59:43.628Z,2.30
2019-03-31T15:02:13.790Z,1.80
2019-03-31T15:04:44.866Z,2.10
2019-03-31T15:07:16.450Z,2.13
2019-03-31T15:09:46.384Z,2.60
2019-03-31T15:12:16.128Z,2.00
2019-03-31T15:14:45.792Z,2.67
2019-03-31T15:17:16.584Z,2.17
2019-03-31T15:19:46.302Z,2.40
2019-03-31T15:22:18.320Z,2.53
2019-03-31T15:24:50.920Z,2.37
2019-03-31T15:27:20.594Z,2.20
2019-03-31T15:29:50.227Z,2.43
2019-03-31T15:32:20.172Z,2.33
2019-03-31T15:34:50.048Z,1.93
2019-03-31T15:37:19.609Z,1.97
2019-03-31T15:39:49.312Z,1.90
2019-03-31T15:42:21.981Z,1.87
2019-03-31T15:44:52.087Z,2.13
2019-03-31T15:47:21.829Z,2.50
2019-03-31T15:49:53.963Z,1.63
2019-03-31T15:52:28.641Z,2.13
2019-03-31T15:55:10.208Z,2.00
2019-03-31T15:57:45.195Z,2.20
2019-03-31T16:00:15.613Z,2.23
2019-03-31T16:02:45.762Z,1.77
2019-03-31T16:05:16.396Z,1.87
2019-03-31T16:07:46.886Z,2.30
2019-03-31T16:10:20.924Z,2.20
2019-03-31T16:12:50.618Z,2.10
2019-03-31T16:15:20.456Z,2.37
2019-03-31T16:17:54.696Z,2.20
2019-03-31T16:20:23.693Z,2.00
2019-03-31T16:22:55.057Z,2.00
2019-03-31T16:25:33.123Z,2.40
2019-03-31T16:28:02.747Z,1.90
2019-03-31T16:30:33.914Z,1.80
2019-03-31T16:33:06.630Z,2.07
2019-03-31T16:35:34.073Z,2.20
2019-03-31T16:38:03.871Z,1.50
2019-03-31T16:40:33.305Z,2.10
2019-03-31T16:43:08.409Z,1.63
2019-03-31T16:45:41.507Z,2.13
2019-03-31T16:48:11.102Z,2.03
2019-03-31T16:50:42.788Z,2.33
2019-03-31T16:53:12.030Z,1.70
2019-03-31T16:55:43.179Z,2.13
2019-03-31T16:58:12.363Z,1.70
2019-03-31T17:00:45.012Z,2.47
2019-03-31T17:03:14.110Z,1.77
2019-03-31T17:05:43.208Z,1.53
2019-03-31T17:08:12.457Z,2.30
2019-03-31T17:10:42.970Z,1.90
2019-03-31T17:13:12.090Z,1.60
2019-03-31T17:15:42.233Z,1.87
2019-03-31T17:18:11.351Z,1.93
2019-03-31T17:20:40.920Z,1.97
2019-03-31T17:23:10.187Z,1.77
2019-03-31T17:25:39.420Z,1.80
2019-03-31T17:28:10.322Z,1.93
2019-03-31T17:30:44.008Z,1.80
2019-03-31T17:33:13.044Z,1.70
2019-03-31T17:35:43.595Z,1.67
2019-03-31T17:38:12.742Z,1.50
2019-03-31T17:40:44.185Z,1.67
2019-03-31T17:43:13.322Z,1.90
2019-03-31T17:45:42.762Z,2.27
2019-03-31T17:48:11.901Z,1.40
2019-03-31T17:50:41.634Z,1.63
2019-03-31T17:53:13.557Z,1.70
2019-03-31T17:55:42.682Z,1.63
2019-03-31T17:58:11.935Z,1.97
2019-03-31T18:00:43.641Z,1.70
2019-03-31T18:03:15.569Z,1.50
2019-03-31T18:05:46.359Z,1.03
2019-03-31T18:08:15.537Z,1.37
2019-03-31T18:10:44.665Z,1.40
2019-03-31T18:13:14.964Z,1.50
2019-03-31T18:15:45.849Z,1.63
2019-03-31T18:18:15.013Z,1.50
2019-03-31T18:20:44.457Z,1.83
2019-03-31T18:23:13.893Z,1.43
2019-03-31T18:25:46.224Z,1.67
2019-03-31T18:28:15.439Z,1.50
2019-03-31T18:30:44.454Z,1.70
2019-03-31T18:33:14.580Z,1.03
2019-03-31T18:35:43.720Z,1.40
2019-03-31T18:38:12.828Z,1.33
2019-03-31T18:40:42.442Z,1.20
2019-03-31T18:43:13.648Z,1.63
2019-03-31T18:45:44.410Z,1.67
2019-03-31T18:48:16.200Z,1.33
2019-03-31T18:50:45.433Z,1.67
2019-03-31T18:53:19.974Z,1.97
2019-03-31T18:56:09.364Z,1.73
2019-03-31T18:58:54.250Z,1.23
2019-03-31T19:01:52.316Z,1.47
2019-03-31T19:04:40.990Z,1.67
2019-03-31T19:07:36.512Z,1.30
2019-03-31T19:10:28.223Z,1.30
2019-03-31T19:13:25.790Z,1.80
2019-03-31T19:16:13.995Z,1.40
2019-03-31T19:19:02.193Z,1.70
2019-03-31T19:21:48.350Z,1.63
2019-03-31T19:24:33.351Z,1.70
2019-03-31T19:27:19.601Z,1.83
2019-03-31T19:30:16.769Z,1.40
2019-03-31T19:33:05.035Z,1.53
2019-03-31T19:35:51.865Z,1.73
2019-03-31T19:38:38.883Z,1.70
2019-03-31T19:41:20.562Z,1.67
2019-03-31T19:44:04.251Z,1.47
2019-03-31T19:46:41.539Z,2.03
2019-03-31T19:49:32.108Z,1.67
2019-03-31T19:52:29.829Z,1.50
2019-03-31T19:55:14.912Z,1.53
2019-03-31T19:58:01.992Z,1.40
2019-03-31T20:01:06.956Z,1.67
2019-03-31T20:03:55.148Z,1.50
2019-03-31T20:06:41.259Z,1.50
2019-03-31T20:09:22.874Z,1.03
2019-03-31T20:12:02.976Z,1.70
2019-03-31T20:14:50.522Z,0.80
2019-03-31T20:17:40.056Z,1.50
2019-03-31T20:20:38.652Z,1.40
2019-03-31T20:23:29.849Z,1.37
2019-03-31T20:26:18.079Z,1.30
2019-03-31T20:29:16.419Z,1.70
2019-03-31T20:32:10.373Z,1.53
2019-03-31T20:34:53.852Z,1.40
2019-03-31T20:37:57.326Z,1.93
2019-03-31T20:40:32.267Z,1.57
2019-03-31T20:43:13.997Z,1.37
2019-03-31T20:45:43.244Z,1.63
2019-03-31T20:48:12.366Z,1.83
2019-03-31T20:50:41.540Z,1.50
2019-03-31T20:53:10.750Z,1.50
2019-03-31T20:55:41.632Z,1.77
2019-03-31T20:58:15.234Z,1.60
2019-03-31T21:00:46.185Z,1.23
2019-03-31T21:03:15.308Z,1.40
2019-03-31T21:05:46.293Z,1.53
2019-03-31T21:08:15.592Z,1.90
2019-03-31T21:10:56.223Z,1.43
2019-03-31T21:13:25.396Z,1.90
2019-03-31T21:15:54.605Z,1.10
2019-03-31T21:18:23.674Z,1.80
2019-03-31T21:20:53.851Z,1.17
2019-03-31T21:23:23.046Z,1.77
2019-03-31T21:25:54.230Z,0.97
2019-03-31T21:28:39.551Z,1.10
2019-03-31T21:31:10.841Z,2.17
2019-03-31T21:33:39.948Z,1.50
2019-03-31T21:36:11.521Z,1.67
2019-03-31T21:38:40.699Z,1.90
2019-03-31T21:41:10.025Z,1.80
2019-03-31T21:43:39.305Z,1.13
2019-03-31T21:46:08.433Z,1.63
2019-03-31T21:48:38.109Z,1.33
2019-03-31T21:51:08.954Z,1.40
2019-03-31T21:53:38.096Z,1.10
2019-03-31T21:56:07.320Z,2.00
2019-03-31T21:58:36.523Z,1.63
2019-03-31T22:01:05.815Z,1.00
2019-03-31T22:03:39.516Z,1.30
2019-03-31T22:06:09.876Z,1.47
2019-03-31T22:08:40.146Z,1.90
2019-03-31T22:11:09.260Z,1.50
2019-03-31T22:13:39.500Z,1.73
2019-03-31T22:16:10.737Z,1.80
2019-03-31T22:18:41.850Z,1.67
2019-03-31T22:21:12.707Z,1.40
2019-03-31T22:23:57.363Z,2.43
2019-03-31T22:26:19.883Z,1.60
2019-03-31T22:28:51.655Z,1.90
2019-03-31T22:31:20.890Z,1.70
2019-03-31T22:33:50.492Z,1.70
2019-03-31T22:36:23.552Z,2.37
2019-03-31T22:38:53.264Z,1.70
2019-03-31T22:41:24.260Z,1.50
2019-03-31T22:43:53.355Z,2.13
2019-03-31T22:46:24.778Z,2.20
2019-03-31T22:48:57.565Z,1.97
2019-03-31T22:51:26.659Z,1.43
2019-03-31T22:53:55.919Z,1.73
2019-03-31T22:56:25.156Z,2.63
2019-03-31T22:58:54.265Z,1.83
2019-03-31T23:01:23.365Z,2.00
2019-03-31T23:03:52.899Z,1.80
2019-03-31T23:06:22.072Z,1.67
2019-03-31T23:08:51.188Z,2.10
2019-03-31T23:11:20.270Z,1.90
2019-03-31T23:13:50.988Z,1.87
2019-03-31T23:16:22.245Z,2.00
2019-03-31T23:18:53.995Z,1.57
2019-03-31T23:21:24.054Z,2.03
2019-03-31T23:23:53.198Z,1.93
2019-03-31T23:26:22.406Z,2.13
2019-03-31T23:28:53.908Z,2.10
2019-03-31T23:31:42.885Z,1.13
2019-03-31T23:34:14.706Z,1.20
2019-03-31T23:36:48.391Z,1.60
2019-03-31T23:39:17.586Z,2.33
2019-03-31T23:41:48.886Z,2.20
2019-03-31T23:44:18.517Z,1.90
2019-03-31T23:46:48.033Z,1.50
2019-03-31T23:49:18.507Z,1.77
2019-03-31T23:51:47.614Z,2.47
2019-03-31T23:54:16.971Z,1.77
2019-03-31T23:56:46.055Z,1.53
2019-03-31T23:59:16.549Z,1.63
